Kwajalein/Bucholz, Marshall Islands
Current Conditions -  °F | °C
As of 7:20 AM on Friday 24 Oct 2014 (Local Time) from PKWA Reporting Station
Drizzle Drizzle  
Wind Chill: 80°   Ceiling: 8500
Heat Index: 84°   Visibility: 10mi
Dew Point: 74°   Wind: 13mph
Humidity: 81%   Direction: 30°NNE
Pressure: 29.86"   Gusts: NA
Location:  8.73°N, 167.73°E
Report Text: PKWA 231920Z AUTO 03011KT 10SM -DZ SCT010 BKN085 OVC110 27/23 A2986 RMK AO2 T02670231
Loading
Personal Weather Stations






























Interactive Weather Map
Tropical Storm Tracking
New forecast layout! Learn more

10-Day Weather Forecast

Advertisements
Track Severe Weather on mobile